Time;durP1;ratioP1;P1;durP2;ratioP2;P2;SDS_P1;SDS_P2;PMS_P1;PMS_P2;Temp;Humidity;BMP_temperature;BMP_pressure;BME280_temperature;BME280_humidity;BME280_pressure;Samples;Min_cycle;Max_cycle;Signal;HPM_P1;HPM_P2
2022/08/05 00:00:05;;;;;;;6.88;3.35;;;;;;;17.67;90.65;101465.88;2047520;28;20205;-73
2022/08/05 00:01:16;;;;;;;8.52;3.22;;;;;;;17.60;91.37;101463.50;2046912;28;20185;-74
2022/08/05 00:02:21;;;;;;;10.07;4.03;;;;;;;17.50;92.36;101460.34;2041117;28;20873;-75
2022/08/05 00:03:23;;;;;;;4.60;2.80;;;;;;;17.42;92.07;101459.78;2039746;28;25514;-75
2022/08/05 00:04:25;;;;;;;10.40;3.75;;;;;;;17.35;93.51;101453.75;2039782;29;31383;-73
2022/08/05 00:05:27;;;;;;;7.57;3.72;;;;;;;17.28;93.74;101454.97;2039792;28;30872;-74
2022/08/05 00:06:49;;;;;;;8.23;4.30;;;;;;;17.19;94.95;101458.94;2040305;28;20905;-76
2022/08/05 00:07:52;;;;;;;9.07;4.68;;;;;;;17.13;95.11;101461.91;2047112;28;28497;-75
2022/08/05 00:09:02;;;;;;;9.00;4.82;;;;;;;17.10;96.37;101470.16;2046815;28;27864;-74
2022/08/05 00:10:06;;;;;;;8.65;5.00;;;;;;;17.06;98.02;101474.81;2047337;28;20036;-75
2022/08/05 00:11:13;;;;;;;9.63;5.45;;;;;;;17.02;96.94;101467.78;2047075;28;30766;-74
2022/08/05 00:12:21;;;;;;;9.52;4.97;;;;;;;16.98;97.11;101463.44;2046855;28;34705;-74
2022/08/05 00:13:23;;;;;;;7.88;4.88;;;;;;;16.99;99.50;101462.47;2047388;28;20127;-74
2022/08/05 00:14:40;;;;;;;8.32;5.28;;;;;;;16.95;98.39;101442.78;2039539;29;36618;-74
2022/08/05 00:15:44;;;;;;;10.30;5.38;;;;;;;16.94;98.39;101429.31;2047414;28;24686;-74
2022/08/05 00:16:57;;;;;;;10.48;5.78;;;;;;;16.90;99.79;101414.19;2045741;28;25198;-74
2022/08/05 00:17:59;;;;;;;11.48;6.15;;;;;;;16.91;99.48;101400.59;2039778;28;32180;-73
2022/08/05 00:19:03;;;;;;;10.98;5.88;;;;;;;16.93;99.60;101387.00;2039788;29;25334;-72
2022/08/05 00:20:06;;;;;;;11.57;5.93;;;;;;;16.90;99.66;101395.25;2039526;29;42012;-72
2022/08/05 00:21:09;;;;;;;9.07;5.13;;;;;;;16.87;99.32;101404.38;2039844;28;33619;-72
2022/08/05 00:22:10;;;;;;;10.48;6.05;;;;;;;16.86;100.00;101413.41;2039710;29;30391;-72
2022/08/05 00:23:12;;;;;;;8.52;6.00;;;;;;;16.81;100.00;101420.81;2039742;28;36154;-71
2022/08/05 00:24:14;;;;;;;10.32;6.55;;;;;;;16.82;100.00;101427.13;2039265;29;39199;-72
2022/08/05 00:25:17;;;;;;;11.43;7.57;;;;;;;16.78;100.00;101421.81;2047711;28;25626;-72
2022/08/05 00:26:19;;;;;;;13.23;6.55;;;;;;;16.75;100.00;101426.47;2046209;28;36568;-73
2022/08/05 00:27:21;;;;;;;10.07;6.78;;;;;;;16.74;100.00;101417.50;2040132;28;25634;-73
2022/08/05 00:28:23;;;;;;;11.68;6.30;;;;;;;16.72;100.00;101422.06;2037871;28;22746;-74
2022/08/05 00:29:30;;;;;;;9.27;5.90;;;;;;;16.71;100.00;101428.44;2055033;28;20042;-75
2022/08/05 00:30:38;;;;;;;8.60;5.68;;;;;;;16.69;100.00;101432.13;2053138;28;29551;-74
2022/08/05 00:31:40;;;;;;;10.82;5.75;;;;;;;16.65;100.00;101436.78;2048094;28;23754;-75
2022/08/05 00:32:55;;;;;;;11.23;6.60;;;;;;;16.63;100.00;101446.78;2047963;28;25173;-75
2022/08/05 00:33:59;;;;;;;10.85;7.50;;;;;;;16.64;100.00;101442.28;2047369;28;39471;-75
2022/08/05 00:35:21;;;;;;;12.13;7.43;;;;;;;16.63;100.00;101438.66;2048294;28;20051;-75
2022/08/05 00:36:23;;;;;;;14.45;7.25;;;;;;;16.62;100.00;101426.09;2048307;28;20684;-75
2022/08/05 00:37:45;;;;;;;11.18;7.07;;;;;;;16.66;100.00;101414.22;2048449;28;20044;-74
2022/08/05 00:38:52;;;;;;;15.35;7.25;;;;;;;16.70;100.00;101407.72;2048334;28;20927;-74
2022/08/05 00:39:54;;;;;;;13.57;7.75;;;;;;;16.65;100.00;101390.81;2048111;28;25845;-75
2022/08/05 00:40:58;;;;;;;13.82;8.05;;;;;;;16.62;100.00;101390.97;2054913;28;20051;-74
2022/08/05 00:42:00;;;;;;;12.05;7.88;;;;;;;16.61;100.00;101372.97;2055202;28;23964;-74
2022/08/05 00:43:04;;;;;;;12.80;8.15;;;;;;;16.61;100.00;101365.72;2046887;28;32293;-74
2022/08/05 00:44:08;;;;;;;13.48;8.13;;;;;;;16.58;100.00;101354.16;2047561;28;32706;-75
2022/08/05 00:45:10;;;;;;;15.25;8.70;;;;;;;16.58;100.00;101354.16;2047441;28;24406;-74
2022/08/05 00:46:12;;;;;;;17.70;8.90;;;;;;;16.57;100.00;101347.88;2047525;28;39245;-75
2022/08/05 00:47:14;;;;;;;12.15;7.75;;;;;;;16.57;100.00;101349.72;2055060;28;29082;-74
2022/08/05 00:48:20;;;;;;;13.88;9.27;;;;;;;16.55;100.00;101332.69;2055527;28;21881;-75
2022/08/05 00:49:28;;;;;;;13.43;8.35;;;;;;;16.54;100.00;101317.38;2047494;28;20997;-74
2022/08/05 00:50:33;;;;;;;17.58;9.15;;;;;;;16.53;100.00;101313.81;2047632;28;28278;-74
2022/08/05 00:51:35;;;;;;;14.57;8.93;;;;;;;16.54;100.00;101311.97;2047901;28;20110;-74
2022/08/05 00:52:52;;;;;;;13.25;8.52;;;;;;;16.56;100.00;101311.00;2047860;28;32857;-74
2022/08/05 00:53:56;;;;;;;13.10;8.90;;;;;;;16.53;100.00;101302.13;2047248;28;31437;-74
2022/08/05 00:55:04;;;;;;;14.75;8.98;;;;;;;16.53;100.00;101302.13;2047621;28;37053;-74
2022/08/05 00:56:07;;;;;;;18.35;9.40;;;;;;;16.56;100.00;101296.56;2048104;28;21134;-74
2022/08/05 00:57:09;;;;;;;13.93;9.57;;;;;;;16.52;100.00;101300.38;2054812;28;27205;-75
2022/08/05 00:58:17;;;;;;;17.52;9.05;;;;;;;16.51;100.00;101291.38;2052483;28;32335;-74
2022/08/05 00:59:19;;;;;;;15.95;9.52;;;;;;;16.52;100.00;101292.25;2047082;28;28877;-75
2022/08/05 01:00:21;;;;;;;15.77;9.18;;;;;;;16.52;100.00;101295.81;2046096;28;22066;-74
2022/08/05 01:01:23;;;;;;;19.58;10.00;;;;;;;16.49;100.00;101295.97;2039606;28;29063;-74
2022/08/05 01:02:25;;;;;;;13.32;8.70;;;;;;;16.47;100.00;101287.03;2039509;28;28348;-75
2022/08/05 01:03:29;;;;;;;13.88;8.35;;;;;;;16.48;100.00;101290.63;2039816;28;30670;-74
2022/08/05 01:04:32;;;;;;;14.35;9.40;;;;;;;16.45;100.00;101283.50;2039863;28;20036;-75
2022/08/05 01:05:34;;;;;;;14.30;9.68;;;;;;;16.47;100.00;101288.84;2039802;28;30377;-75
2022/08/05 01:06:36;;;;;;;17.02;9.57;;;;;;;16.45;100.00;101288.91;2039760;28;22758;-75
2022/08/05 01:07:41;;;;;;;13.80;8.93;;;;;;;16.45;100.00;101288.06;2039649;28;30306;-74
2022/08/05 01:09:04;;;;;;;14.90;8.48;;;;;;;16.40;100.00;101286.44;2040138;29;20052;-74
2022/08/05 01:10:12;;;;;;;13.63;9.23;;;;;;;16.39;100.00;101300.88;2039184;28;35236;-74
2022/08/05 01:11:23;;;;;;;16.75;9.85;;;;;;;16.43;100.00;101301.63;2047338;28;20044;-75
2022/08/05 01:12:34;;;;;;;18.25;9.85;;;;;;;16.38;100.00;101309.94;2046314;28;38963;-76
2022/08/05 01:13:58;;;;;;;14.80;9.68;;;;;;;16.34;100.00;101310.97;2047188;28;40178;-74
2022/08/05 01:15:08;;;;;;;18.20;10.07;;;;;;;16.34;100.00;101319.09;2039583;29;31029;-74
2022/08/05 01:16:57;;;;;;;13.75;8.85;;;;;;;16.32;100.00;101333.63;2038736;29;31892;-75
2022/08/05 01:18:08;;;;;;;14.30;9.00;;;;;;;16.29;100.00;101340.00;2039469;29;31072;-74
2022/08/05 01:19:21;;;;;;;13.98;8.23;;;;;;;16.31;100.00;101351.66;2039805;28;20036;-75
2022/08/05 01:20:34;;;;;;;14.57;8.75;;;;;;;16.28;100.00;101359.88;2039782;28;29844;-75
2022/08/05 01:21:54;;;;;;;17.10;9.45;;;;;;;16.29;100.00;101364.34;2046862;28;29379;-75
2022/08/05 01:23:10;;;;;;;;;;;;;;;16.26;100.00;101363.56;2047192;28;28343;-74
2022/08/05 01:24:47;;;;;;;15.63;9.75;;;;;;;16.29;100.00;101367.03;2044912;28;30432;-74
2022/08/05 01:26:04;;;;;;;16.67;9.23;;;;;;;16.28;100.00;101359.03;2039839;29;29824;-74
2022/08/05 01:27:32;;;;;;;12.48;8.68;;;;;;;16.29;100.00;101364.34;2040156;28;20993;-75
2022/08/05 01:28:46;;;;;;;15.70;9.40;;;;;;;16.29;100.00;101368.88;2046578;28;36082;-74
2022/08/05 01:29:53;;;;;;;16.45;9.55;;;;;;;16.29;100.00;101367.03;2043370;28;21015;-74
2022/08/05 01:31:40;;;;;;;17.40;10.00;;;;;;;16.29;100.00;101364.34;2046953;28;38965;-75
2022/08/05 01:32:47;;;;;;;16.40;10.40;;;;;;;16.32;100.00;101363.34;2030904;29;30432;-75
2022/08/05 01:34:31;;;;;;;17.08;10.20;;;;;;;16.32;100.00;101360.66;2030644;29;30518;-75
2022/08/05 01:35:40;;;;;;;18.70;11.32;;;;;;;16.41;100.00;101354.88;2026775;29;26250;-75
2022/08/05 01:37:01;;;;;;;17.55;10.57;;;;;;;16.40;100.00;101342.28;2030713;29;27185;-75
2022/08/05 01:38:05;;;;;;;18.17;11.15;;;;;;;16.37;100.00;101337.91;2032836;28;25802;-75
2022/08/05 01:39:08;;;;;;;14.13;9.75;;;;;;;16.33;100.00;101341.66;2046798;28;27495;-75
2022/08/05 01:40:11;;;;;;;17.92;10.45;;;;;;;16.32;100.00;101350.72;2046724;28;30570;-75
2022/08/05 01:41:17;;;;;;;18.42;11.10;;;;;;;16.30;100.00;101360.69;2047661;28;20040;-75
2022/08/05 01:42:22;;;;;;;21.80;10.50;;;;;;;16.28;100.00;101362.59;2047251;28;25587;-75
2022/08/05 01:43:26;;;;;;;15.10;10.20;;;;;;;16.25;100.00;101360.00;2047644;28;31357;-75
2022/08/05 01:44:29;;;;;;;16.02;9.93;;;;;;;16.20;100.00;101365.59;2047598;28;20222;-74
2022/08/05 01:45:37;;;;;;;13.43;9.68;;;;;;;16.18;100.00;101362.06;2040811;28;26718;-75
2022/08/05 01:46:44;;;;;;;15.75;9.80;;;;;;;16.14;100.00;101363.13;2048271;28;30688;-75
2022/08/05 01:47:49;;;;;;;15.13;10.07;;;;;;;16.13;100.00;101371.28;2047894;28;27618;-75
2022/08/05 01:48:57;;;;;;;15.32;10.32;;;;;;;16.10;100.00;101369.59;2048648;28;27613;-75
2022/08/05 01:50:03;;;;;;;17.33;11.63;;;;;;;16.09;100.00;101377.75;2047977;28;20044;-75
2022/08/05 01:51:08;;;;;;;16.63;11.77;;;;;;;16.09;100.00;101370.53;2047725;28;20040;-75
2022/08/05 01:52:13;;;;;;;19.52;12.65;;;;;;;16.05;100.00;101370.72;2047547;28;30447;-75
2022/08/05 01:53:21;;;;;;;14.32;10.60;;;;;;;16.02;100.00;101367.22;2048141;28;26888;-75
2022/08/05 01:54:29;;;;;;;14.07;10.68;;;;;;;16.00;100.00;101369.06;2047118;28;20031;-75
2022/08/05 01:55:33;;;;;;;17.88;11.57;;;;;;;16.00;100.00;101373.59;2048480;28;27788;-75
2022/08/05 01:56:42;;;;;;;21.00;11.45;;;;;;;16.02;100.00;101387.91;2046625;28;32249;-75
2022/08/05 01:58:08;;;;;;;20.85;12.02;;;;;;;16.05;100.00;101392.34;2040969;28;20188;-75
2022/08/05 01:59:21;;;;;;;19.38;13.05;;;;;;;16.07;100.00;101393.16;2048227;28;28056;-75
2022/08/05 02:00:26;;;;;;;19.48;12.60;;;;;;;16.08;100.00;101392.19;2047876;28;29987;-75
2022/08/05 02:01:33;;;;;;;23.15;13.55;;;;;;;16.10;100.00;101390.34;2048802;28;20044;-75
2022/08/05 02:02:47;;;;;;;23.52;13.82;;;;;;;16.12;100.00;101385.75;2046762;28;20042;-75
2022/08/05 02:03:54;;;;;;;23.02;13.80;;;;;;;16.12;100.00;101378.53;2048812;28;26458;-75
2022/08/05 02:05:06;;;;;;;19.70;13.25;;;;;;;16.12;100.00;101372.25;2047631;28;34568;-75
2022/08/05 02:06:13;;;;;;;18.45;12.15;;;;;;;16.14;100.00;101375.75;2048147;28;24689;-75
2022/08/05 02:07:25;;;;;;;20.98;14.07;;;;;;;16.20;100.00;101364.69;2047963;28;20605;-75
2022/08/05 02:08:27;;;;;;;21.95;14.55;;;;;;;16.17;100.00;101365.72;2047964;28;32359;-75
2022/08/05 02:09:32;;;;;;;21.85;14.25;;;;;;;16.18;100.00;101366.59;2048473;28;20913;-75
2022/08/05 02:10:42;;;;;;;20.17;12.55;;;;;;;16.16;100.00;101363.94;2047801;28;25420;-75
2022/08/05 02:11:53;;;;;;;20.52;12.52;;;;;;;16.19;100.00;101362.97;2048395;28;20040;-75
2022/08/05 02:13:07;;;;;;;21.67;13.00;;;;;;;16.15;100.00;101353.19;2047848;28;26925;-76
2022/08/05 02:14:27;;;;;;;25.17;14.60;;;;;;;16.18;100.00;101363.88;2048647;28;20187;-75
2022/08/05 02:15:42;;;;;;;20.23;13.05;;;;;;;16.16;100.00;101358.53;2047823;28;28350;-75
2022/08/05 02:16:54;;;;;;;21.00;13.23;;;;;;;16.14;100.00;101346.06;2047999;28;27797;-75
2022/08/05 02:18:09;;;;;;;23.83;13.88;;;;;;;16.14;100.00;101341.53;2047197;28;26513;-75
2022/08/05 02:19:36;;;;;;;21.92;13.48;;;;;;;16.11;100.00;101343.47;2047790;28;26084;-75
2022/08/05 02:20:51;;;;;;;24.20;14.73;;;;;;;16.10;100.00;101345.28;2048250;28;24296;-75
2022/08/05 02:22:18;;;;;;;18.88;13.20;;;;;;;16.05;100.00;101343.72;2047373;28;37239;-75
2022/08/05 02:23:31;;;;;;;16.33;11.45;;;;;;;16.00;100.00;101346.59;2047697;28;32193;-75
2022/08/05 02:24:39;;;;;;;18.80;13.25;;;;;;;16.07;100.00;101355.34;2048257;28;21498;-75
2022/08/05 02:25:44;;;;;;;19.80;12.48;;;;;;;16.00;100.00;101355.56;2046255;28;35431;-75
2022/08/05 02:26:58;;;;;;;21.40;13.48;;;;;;;15.96;100.00;101359.31;2048133;28;24349;-75
2022/08/05 02:28:03;;;;;;;22.25;13.77;;;;;;;15.99;100.00;101353.81;2047972;28;24673;-75
2022/08/05 02:29:12;;;;;;;27.23;14.77;;;;;;;16.03;100.00;101347.34;2045807;28;35159;-75
2022/08/05 02:30:26;;;;;;;22.27;13.93;;;;;;;15.98;100.00;101335.84;2041421;28;22982;-75
2022/08/05 02:31:35;;;;;;;27.13;15.30;;;;;;;16.01;100.00;101337.56;2047347;28;30242;-75
2022/08/05 02:32:38;;;;;;;21.27;13.27;;;;;;;16.00;100.00;101342.06;2048667;28;27060;-74
2022/08/05 02:33:49;;;;;;;22.70;13.57;;;;;;;15.99;100.00;101343.00;2047127;28;28556;-75
2022/08/05 02:35:08;;;;;;;17.75;13.07;;;;;;;16.03;100.00;101351.88;2045461;28;25102;-75
2022/08/05 02:36:19;;;;;;;21.77;13.18;;;;;;;16.00;100.00;101357.38;2040998;28;20044;-75
2022/08/05 02:37:22;;;;;;;16.70;12.88;;;;;;;16.01;100.00;101365.44;2040486;28;37378;-74
2022/08/05 02:38:28;;;;;;;24.70;14.25;;;;;;;16.01;100.00;101368.13;2040650;28;25266;-75
2022/08/05 02:39:38;;;;;;;20.60;14.10;;;;;;;16.03;100.00;101363.56;2047981;28;20895;-75
2022/08/05 02:40:43;;;;;;;20.73;13.60;;;;;;;16.06;100.00;101358.97;2047464;28;38010;-75
2022/08/05 02:41:51;;;;;;;19.98;12.25;;;;;;;16.07;100.00;101366.16;2048537;28;20079;-75
2022/08/05 02:43:00;;;;;;;18.98;13.45;;;;;;;16.08;100.00;101376.00;2047630;28;27996;-75
2022/08/05 02:44:07;;;;;;;19.13;13.30;;;;;;;16.08;100.00;101376.00;2045370;28;41214;-75
2022/08/05 02:45:14;;;;;;;22.17;13.13;;;;;;;16.13;100.00;101379.41;2040661;28;25769;-75
2022/08/05 02:46:18;;;;;;;16.95;11.65;;;;;;;16.12;100.00;101374.94;2039888;28;31150;-75
2022/08/05 02:47:22;;;;;;;20.27;11.70;;;;;;;16.11;100.00;101381.28;2047712;28;27632;-75
2022/08/05 02:48:24;;;;;;;22.70;14.13;;;;;;;16.14;100.00;101370.38;2046993;28;36611;-75
2022/08/05 02:49:35;;;;;;;18.65;12.30;;;;;;;16.14;100.00;101376.63;2046591;28;32141;-76
2022/08/05 02:50:44;;;;;;;17.33;11.82;;;;;;;16.15;100.00;101373.00;2047549;28;20059;-75
2022/08/05 02:51:47;;;;;;;20.50;13.27;;;;;;;16.16;100.00;101374.75;2031706;29;31227;-75
2022/08/05 02:53:05;;;;;;;19.92;13.30;;;;;;;16.16;100.00;101373.88;2042810;28;24435;-75
2022/08/05 02:54:09;;;;;;;17.42;12.13;;;;;;;16.16;100.00;101368.47;2045774;28;29766;-75
2022/08/05 02:55:12;;;;;;;21.90;12.60;;;;;;;16.17;100.00;101367.56;2048113;28;29287;-76
2022/08/05 02:56:15;;;;;;;23.23;13.23;;;;;;;16.18;100.00;101369.28;2048118;28;20042;-76
2022/08/05 02:57:21;;;;;;;21.52;13.27;;;;;;;16.18;100.00;101367.47;2047666;28;26870;-74
2022/08/05 02:58:44;;;;;;;23.08;13.52;;;;;;;16.18;100.00;101372.88;2044418;28;20048;-75
2022/08/05 02:59:48;;;;;;;24.02;14.20;;;;;;;16.20;100.00;101365.59;2040420;28;29060;-75
2022/08/05 03:00:54;;;;;;;18.13;12.25;;;;;;;16.19;100.00;101369.25;2040137;29;29457;-75
2022/08/05 03:01:59;;;;;;;17.38;12.00;;;;;;;16.20;100.00;101364.69;2047960;28;30311;-75
2022/08/05 03:03:02;;;;;;;18.48;11.68;;;;;;;16.18;100.00;101362.06;2047460;28;27230;-75
2022/08/05 03:04:13;;;;;;;20.13;13.13;;;;;;;16.19;100.00;101365.66;2047002;28;20793;-75
2022/08/05 03:05:18;;;;;;;17.98;12.85;;;;;;;16.21;100.00;101366.47;2047264;28;24535;-75
2022/08/05 03:06:22;;;;;;;23.83;13.18;;;;;;;16.20;100.00;101349.41;2039857;28;32267;-75
2022/08/05 03:07:44;;;;;;;21.35;13.63;;;;;;;16.19;100.00;101357.56;2040277;29;20040;-75
2022/08/05 03:09:03;;;;;;;18.40;12.30;;;;;;;16.17;100.00;101352.22;2047197;28;33807;-75
2022/08/05 03:10:08;;;;;;;20.92;12.20;;;;;;;16.19;100.00;101352.16;2045533;28;29574;-75
2022/08/05 03:11:19;;;;;;;19.92;12.70;;;;;;;16.20;100.00;101349.41;2039700;29;26051;-75
2022/08/05 03:12:41;;;;;;;20.25;12.50;;;;;;;16.23;100.00;101343.84;2048426;28;20048;-75
2022/08/05 03:13:43;;;;;;;16.92;12.50;;;;;;;16.20;100.00;101354.81;2046776;28;30607;-75
2022/08/05 03:14:55;;;;;;;17.83;11.70;;;;;;;16.19;100.00;101353.03;2047765;28;32144;-75
2022/08/05 03:15:59;;;;;;;17.98;11.63;;;;;;;16.20;100.00;101364.69;2045971;28;27045;-75
2022/08/05 03:17:01;;;;;;;20.38;12.55;;;;;;;16.21;100.00;101367.34;2040118;28;27733;-75
2022/08/05 03:18:06;;;;;;;16.35;12.25;;;;;;;16.20;100.00;101359.31;2040750;28;30829;-75
2022/08/05 03:19:08;;;;;;;20.83;12.63;;;;;;;16.21;100.00;101359.25;2047949;28;20082;-74
2022/08/05 03:20:13;;;;;;;18.75;12.27;;;;;;;16.22;100.00;101368.22;2046970;28;30168;-75
2022/08/05 03:21:15;;;;;;;14.10;10.55;;;;;;;16.22;100.00;101362.81;2055299;28;29446;-76
2022/08/05 03:22:17;;;;;;;16.55;10.57;;;;;;;16.23;100.00;101367.28;2054391;28;31841;-75
2022/08/05 03:23:20;;;;;;;15.48;12.00;;;;;;;16.21;100.00;101367.34;2047878;28;37480;-75
2022/08/05 03:24:25;;;;;;;13.88;11.60;;;;;;;16.23;100.00;101361.88;2055496;28;20043;-75
2022/08/05 03:25:32;;;;;;;14.90;11.13;;;;;;;16.23;100.00;101372.69;2054642;28;20051;-75
2022/08/05 03:26:53;;;;;;;14.63;11.40;;;;;;;16.25;100.00;101383.44;2056151;28;20054;-75
2022/08/05 03:27:56;;;;;;;20.83;11.63;;;;;;;16.23;100.00;101380.81;2052461;28;36408;-75
2022/08/05 03:29:01;;;;;;;18.75;11.05;;;;;;;16.22;100.00;101377.22;2032416;29;24334;-75
2022/08/05 03:30:03;;;;;;;16.73;11.43;;;;;;;16.22;100.00;101374.53;2032181;29;25777;-75
2022/08/05 03:31:09;;;;;;;18.77;11.90;;;;;;;16.23;100.00;101375.41;2039870;29;28631;-75
2022/08/05 03:32:12;;;;;;;16.58;12.55;;;;;;;16.22;100.00;101377.22;2038977;29;20937;-75
2022/08/05 03:33:15;;;;;;;15.05;11.18;;;;;;;16.23;100.00;101370.88;2037529;28;27329;-75
2022/08/05 03:34:18;;;;;;;17.33;11.77;;;;;;;16.23;100.00;101370.00;2047753;28;24255;-75
2022/08/05 03:35:22;;;;;;;16.10;11.52;;;;;;;16.22;100.00;101370.91;2056275;28;20035;-75
2022/08/05 03:36:24;;;;;;;15.93;11.18;;;;;;;16.22;100.00;101362.81;2054460;28;29276;-75
2022/08/05 03:37:29;;;;;;;17.77;11.93;;;;;;;16.25;100.00;101361.84;2048014;28;20036;-75
2022/08/05 03:38:31;;;;;;;12.52;9.45;;;;;;;16.21;100.00;101361.06;2055271;28;30808;-75
2022/08/05 03:39:34;;;;;;;11.82;9.80;;;;;;;16.20;100.00;101371.00;2055422;28;20150;-75
2022/08/05 03:40:48;;;;;;;13.13;10.48;;;;;;;16.19;100.00;101373.78;2048125;28;20036;-75
2022/08/05 03:41:50;;;;;;;16.83;10.68;;;;;;;16.19;100.00;101373.78;2047149;28;30281;-75
2022/08/05 03:42:55;;;;;;;13.60;10.85;;;;;;;16.17;100.00;101371.13;2046606;28;29869;-75
2022/08/05 03:43:57;;;;;;;14.50;9.95;;;;;;;16.17;100.00;101370.25;2055433;28;23156;-75
2022/08/05 03:45:10;;;;;;;19.42;10.93;;;;;;;16.17;100.00;101381.06;2054252;28;23416;-75
2022/08/05 03:46:23;;;;;;;18.50;11.63;;;;;;;16.18;100.00;101374.69;2048642;28;20931;-75
2022/08/05 03:47:27;;;;;;;16.05;10.43;;;;;;;16.17;100.00;101386.47;2048071;28;20166;-75
2022/08/05 03:48:35;;;;;;;14.30;11.05;;;;;;;16.17;100.00;101381.06;2048008;28;28441;-75
2022/08/05 03:49:37;;;;;;;15.73;10.15;;;;;;;16.16;100.00;101393.66;2048403;28;21426;-75
2022/08/05 03:51:02;;;;;;;16.83;11.63;;;;;;;16.15;100.00;101394.63;2048617;28;30145;-75
2022/08/05 03:52:23;;;;;;;15.90;10.32;;;;;;;16.15;100.00;101393.72;2049632;28;22337;-75
2022/08/05 03:54:07;;;;;;;17.75;10.65;;;;;;;16.15;100.00;101399.13;2054857;28;33494;-75
2022/08/05 03:55:38;;;;;;;18.20;11.60;;;;;;;16.17;100.00;101408.06;2048187;28;20051;-75
2022/08/05 03:56:57;;;;;;;17.33;10.95;;;;;;;16.16;100.00;101406.31;2047482;28;35412;-74
2022/08/05 03:58:02;;;;;;;15.45;10.43;;;;;;;16.15;100.00;101404.53;2047581;28;22815;-75
2022/08/05 03:59:09;;;;;;;12.60;9.55;;;;;;;16.14;100.00;101397.38;2046550;28;23823;-75
2022/08/05 04:00:14;;;;;;;15.13;11.18;;;;;;;16.14;100.00;101398.25;2048371;28;20111;-75
2022/08/05 04:01:19;;;;;;;18.63;10.80;;;;;;;16.13;100.00;101393.81;2047122;28;31567;-75
2022/08/05 04:02:29;;;;;;;20.00;10.88;;;;;;;16.14;100.00;101397.38;2047597;28;24415;-74
2022/08/05 04:03:43;;;;;;;12.60;9.90;;;;;;;16.13;100.00;101398.31;2046266;28;26320;-75
2022/08/05 04:04:58;;;;;;;12.32;9.52;;;;;;;16.13;100.00;101392.91;2047524;28;27565;-74
2022/08/05 04:06:03;;;;;;;11.60;9.40;;;;;;;16.12;100.00;101400.13;2051570;28;33224;-75
2022/08/05 04:07:07;;;;;;;18.95;10.48;;;;;;;16.13;100.00;101406.41;2054981;28;34402;-74
2022/08/05 04:08:10;;;;;;;14.73;9.48;;;;;;;16.13;100.00;101403.72;2054956;28;29171;-75
2022/08/05 04:09:16;;;;;;;14.32;9.35;;;;;;;16.14;100.00;101400.09;2050429;28;25766;-74
2022/08/05 04:10:21;;;;;;;14.85;10.38;;;;;;;16.14;100.00;101411.75;2047753;28;20161;-74
2022/08/05 04:11:24;;;;;;;15.15;9.00;;;;;;;16.14;100.00;101411.75;2047137;28;20138;-74
2022/08/05 04:12:25;;;;;;;17.45;10.57;;;;;;;16.16;100.00;101406.31;2047358;28;22060;-74
2022/08/05 04:13:29;;;;;;;11.75;8.77;;;;;;;16.16;100.00;101407.16;2045687;28;37160;-74
2022/08/05 04:14:51;;;;;;;14.77;10.20;;;;;;;16.18;100.00;101399.88;2043171;28;28075;-75
2022/08/05 04:15:53;;;;;;;15.25;10.40;;;;;;;16.18;100.00;101397.19;2047407;28;30672;-75
2022/08/05 04:17:04;;;;;;;15.02;10.27;;;;;;;16.17;100.00;101394.56;2055702;28;20154;-75
2022/08/05 04:18:06;;;;;;;14.55;10.13;;;;;;;16.16;100.00;101384.69;2046781;28;30768;-75
2022/08/05 04:19:12;;;;;;;15.88;9.40;;;;;;;16.17;100.00;101391.88;2047152;28;26230;-74
2022/08/05 04:20:19;;;;;;;18.13;10.52;;;;;;;16.18;100.00;101391.78;2047958;28;23226;-74
2022/08/05 04:21:21;;;;;;;13.23;9.32;;;;;;;16.19;100.00;101388.16;2048197;28;22498;-74
2022/08/05 04:22:43;;;;;;;18.42;9.80;;;;;;;16.21;100.00;101393.50;2048990;28;20047;-74
2022/08/05 04:23:45;;;;;;;14.07;9.38;;;;;;;16.20;100.00;101395.31;2047601;28;24025;-75
2022/08/05 04:24:59;;;;;;;11.35;9.68;;;;;;;16.21;100.00;101390.78;2055532;28;20097;-74
2022/08/05 04:26:04;;;;;;;16.83;10.40;;;;;;;16.23;100.00;101389.78;2052728;28;31528;-74
2022/08/05 04:27:06;;;;;;;14.15;9.27;;;;;;;16.22;100.00;101387.13;2048034;28;20110;-75
2022/08/05 04:28:10;;;;;;;16.42;10.95;;;;;;;16.24;100.00;101398.78;2053428;28;23937;-75
2022/08/05 04:29:13;;;;;;;13.65;10.00;;;;;;;16.25;100.00;101395.13;2046557;28;25634;-75
2022/08/05 04:30:15;;;;;;;15.52;9.45;;;;;;;16.26;100.00;101399.59;2046951;28;23619;-75
2022/08/05 04:31:17;;;;;;;11.07;8.00;;;;;;;16.28;100.00;101399.56;2047001;28;36057;-74
2022/08/05 04:32:18;;;;;;;13.27;10.38;;;;;;;16.28;100.00;101386.03;2040021;28;24029;-75
2022/08/05 04:33:32;;;;;;;13.82;9.38;;;;;;;16.29;100.00;101383.25;2040247;28;27134;-75
2022/08/05 04:34:37;;;;;;;10.93;8.25;;;;;;;16.29;100.00;101380.53;2039670;28;33488;-75
2022/08/05 04:35:43;;;;;;;11.52;8.85;;;;;;;16.29;100.00;101382.38;2047369;28;28548;-75
2022/08/05 04:37:05;;;;;;;15.27;10.05;;;;;;;16.30;100.00;101374.22;2044414;28;20830;-75
2022/08/05 04:38:08;;;;;;;14.00;10.02;;;;;;;16.32;100.00;101369.63;2039923;28;32099;-75
2022/08/05 04:39:10;;;;;;;13.02;9.73;;;;;;;16.33;100.00;101374.09;2039159;28;20051;-75
2022/08/05 04:40:12;;;;;;;14.75;9.98;;;;;;;16.34;100.00;101374.97;2039589;29;24099;-75
2022/08/05 04:41:14;;;;;;;13.07;9.05;;;;;;;16.34;100.00;101380.38;2039228;28;30708;-75
2022/08/05 04:42:15;;;;;;;15.70;9.75;;;;;;;16.35;100.00;101383.03;2039609;28;29817;-75
2022/08/05 04:43:17;;;;;;;12.25;8.82;;;;;;;16.37;100.00;101386.53;2039942;28;20386;-75
2022/08/05 04:44:22;;;;;;;12.32;8.32;;;;;;;16.39;100.00;101379.25;2039877;28;25937;-75
2022/08/05 04:45:30;;;;;;;11.18;8.45;;;;;;;16.42;100.00;101383.66;2040002;28;20082;-75
2022/08/05 04:46:49;;;;;;;13.88;9.45;;;;;;;16.42;100.00;101387.25;2039719;28;25185;-75
2022/08/05 04:47:51;;;;;;;15.95;9.40;;;;;;;16.46;100.00;101384.41;2040063;29;21603;-76
2022/08/05 04:48:55;;;;;;;10.80;8.48;;;;;;;16.46;100.00;101381.72;2040089;28;21017;-75
2022/08/05 04:49:59;;;;;;;14.25;9.57;;;;;;;16.50;100.00;101378.81;2039784;28;27003;-75
2022/08/05 04:51:04;;;;;;;13.85;8.48;;;;;;;16.53;100.00;101367.88;2039283;28;31654;-75
2022/08/05 04:52:10;;;;;;;14.90;9.05;;;;;;;16.53;100.00;101362.47;2048268;28;23477;-75
2022/08/05 04:53:17;;;;;;;13.75;8.63;;;;;;;16.58;100.00;101367.69;2047684;28;20877;-76
2022/08/05 04:54:18;;;;;;;11.48;8.60;;;;;;;16.62;100.00;101366.63;2040562;29;20809;-75
2022/08/05 04:55:20;;;;;;;13.82;9.25;;;;;;;16.65;100.00;101371.88;2038483;29;28662;-75
2022/08/05 04:56:22;;;;;;;12.52;8.82;;;;;;;16.67;100.00;101375.44;2042611;28;20044;-75
2022/08/05 04:57:39;;;;;;;10.70;7.75;;;;;;;16.65;100.00;101380.00;2051136;28;20047;-75
2022/08/05 04:58:41;;;;;;;10.23;7.70;;;;;;;16.68;100.00;101381.72;2046444;28;22188;-75
2022/08/05 04:59:43;;;;;;;12.18;8.75;;;;;;;16.69;100.00;101386.16;2044787;28;24101;-75
2022/08/05 05:00:45;;;;;;;12.60;7.60;;;;;;;16.74;100.00;101392.25;2045083;28;23431;-75
2022/08/05 05:01:51;;;;;;;10.60;7.85;;;;;;;16.76;100.00;101388.56;2044572;28;20746;-75
2022/08/05 05:03:10;;;;;;;10.38;8.13;;;;;;;16.79;100.00;101395.66;2044973;28;31969;-76
2022/08/05 05:04:12;;;;;;;10.85;8.50;;;;;;;16.80;100.00;101395.59;2045865;28;20111;-74
2022/08/05 05:05:14;;;;;;;14.27;7.72;;;;;;;16.83;100.00;101401.81;2046115;29;33289;-75
2022/08/05 05:06:18;;;;;;;10.13;8.15;;;;;;;16.82;100.00;101400.06;2047193;29;30963;-75
2022/08/05 05:07:36;;;;;;;11.60;7.40;;;;;;;16.79;100.00;101401.94;2048067;28;26219;-75
2022/08/05 05:08:39;;;;;;;9.55;7.05;;;;;;;16.84;100.00;101400.91;2047276;29;31246;-76